createdAt,value
2022-11-26T00:00:37.700Z,1017.62
2022-11-26T00:01:37.697Z,1017.67
2022-11-26T00:02:37.830Z,1017.63
2022-11-26T00:03:37.741Z,1017.63
2022-11-26T00:04:37.849Z,1017.62
2022-11-26T00:05:37.662Z,1017.71
2022-11-26T00:06:37.687Z,1017.68
2022-11-26T00:07:37.931Z,1017.72
2022-11-26T00:08:37.665Z,1017.77
2022-11-26T00:09:37.640Z,1017.82
2022-11-26T00:10:37.586Z,1017.82
2022-11-26T00:11:37.600Z,1017.83
2022-11-26T00:12:37.584Z,1017.74
2022-11-26T00:13:37.583Z,1017.78
2022-11-26T00:14:37.818Z,1017.80
2022-11-26T00:15:37.574Z,1017.76
2022-11-26T00:16:37.585Z,1017.83
2022-11-26T00:17:37.507Z,1017.81
2022-11-26T00:18:37.514Z,1017.82
2022-11-26T00:19:37.550Z,1017.83
2022-11-26T00:20:37.494Z,1017.82
2022-11-26T00:21:37.450Z,1017.83
2022-11-26T00:22:37.448Z,1017.80
2022-11-26T00:23:37.470Z,1017.87
2022-11-26T00:24:37.769Z,1017.88
2022-11-26T00:25:37.478Z,1017.87
2022-11-26T00:26:37.412Z,1017.86
2022-11-26T00:27:37.395Z,1017.90
2022-11-26T00:28:37.440Z,1017.89
2022-11-26T00:29:37.378Z,1017.90
2022-11-26T00:30:37.424Z,1017.92
2022-11-26T00:31:37.414Z,1017.93
2022-11-26T00:32:37.354Z,1017.95
2022-11-26T00:33:37.327Z,1017.94
2022-11-26T00:34:37.530Z,1017.98
2022-11-26T00:35:37.329Z,1017.93
2022-11-26T00:36:37.349Z,1017.98
2022-11-26T00:37:37.343Z,1017.97
2022-11-26T00:38:37.287Z,1018.00
2022-11-26T00:39:37.270Z,1017.98
2022-11-26T00:40:37.305Z,1018.06
2022-11-26T00:41:37.300Z,1018.00
2022-11-26T00:42:37.306Z,1018.03
2022-11-26T00:43:37.217Z,1018.13
2022-11-26T00:44:38.203Z,1018.09
2022-11-26T00:45:37.260Z,1018.15
2022-11-26T00:46:37.220Z,1018.16
2022-11-26T00:47:37.224Z,1018.12
2022-11-26T00:48:37.194Z,1018.09
2022-11-26T00:49:37.235Z,1018.14
2022-11-26T00:50:37.182Z,1018.14
2022-11-26T00:51:37.144Z,1018.13
2022-11-26T00:52:37.106Z,1018.12
2022-11-26T00:53:37.212Z,1018.12
2022-11-26T00:54:37.299Z,1018.18
2022-11-26T00:55:37.121Z,1018.14
2022-11-26T00:56:38.310Z,1018.16
2022-11-26T00:57:37.148Z,1018.14
2022-11-26T00:58:37.088Z,1018.15
2022-11-26T00:59:37.052Z,1018.17
2022-11-26T01:00:37.157Z,1018.19
2022-11-26T01:01:37.165Z,1018.21
2022-11-26T01:02:37.132Z,1018.20
2022-11-26T01:03:37.002Z,1018.25
2022-11-26T01:04:37.330Z,1018.26
2022-11-26T01:05:36.979Z,1018.28
2022-11-26T01:06:37.004Z,1018.29
2022-11-26T01:07:37.119Z,1018.29
2022-11-26T01:08:36.967Z,1018.36
2022-11-26T01:09:36.920Z,1018.37
2022-11-26T01:10:36.974Z,1018.37
2022-11-26T01:11:36.943Z,1018.40
2022-11-26T01:12:36.939Z,1018.45
2022-11-26T01:13:36.896Z,1018.47
2022-11-26T01:14:37.156Z,1018.41
2022-11-26T01:15:36.883Z,1018.44
2022-11-26T01:16:36.911Z,1018.46
2022-11-26T01:17:36.887Z,1018.49
2022-11-26T01:18:36.833Z,1018.46
2022-11-26T01:19:36.807Z,1018.49
2022-11-26T01:20:36.822Z,1018.52
2022-11-26T01:21:36.804Z,1018.56
2022-11-26T01:22:36.831Z,1018.61
2022-11-26T01:23:36.803Z,1018.60
2022-11-26T01:24:37.178Z,1018.58
2022-11-26T01:25:36.773Z,1018.63
2022-11-26T01:26:36.774Z,1018.61
2022-11-26T01:27:36.764Z,1018.65
2022-11-26T01:28:36.717Z,1018.63
2022-11-26T01:29:36.724Z,1018.63
2022-11-26T01:30:36.980Z,1018.64
2022-11-26T01:31:36.755Z,1018.63
2022-11-26T01:32:36.664Z,1018.66
2022-11-26T01:33:36.681Z,1018.71
2022-11-26T01:34:37.082Z,1018.69
2022-11-26T01:35:36.646Z,1018.66
2022-11-26T01:36:36.676Z,1018.68
2022-11-26T01:37:36.635Z,1018.73
2022-11-26T01:38:36.623Z,1018.76
2022-11-26T01:39:36.610Z,1018.72
2022-11-26T01:40:36.587Z,1018.75
2022-11-26T01:41:36.575Z,1018.74
2022-11-26T01:42:36.638Z,1018.75
2022-11-26T01:43:36.552Z,1018.77
2022-11-26T01:44:37.141Z,1018.78
2022-11-26T01:45:36.593Z,1018.80
2022-11-26T01:46:36.549Z,1018.80
2022-11-26T01:47:36.535Z,1018.84
2022-11-26T01:48:36.561Z,1018.82
2022-11-26T01:49:36.481Z,1018.86
2022-11-26T01:50:36.482Z,1018.87
2022-11-26T01:51:36.501Z,1018.91
2022-11-26T01:52:36.472Z,1018.91
2022-11-26T01:53:36.522Z,1018.90
2022-11-26T01:54:36.689Z,1018.93
2022-11-26T01:55:36.429Z,1018.92
2022-11-26T01:56:36.433Z,1018.88
2022-11-26T01:57:36.397Z,1018.90
2022-11-26T01:58:39.901Z,1018.91
2022-11-26T01:59:36.404Z,1018.86
2022-11-26T02:00:36.364Z,1018.86
2022-11-26T02:01:36.483Z,1018.87
2022-11-26T02:02:36.405Z,1018.87
2022-11-26T02:03:36.332Z,1018.90
2022-11-26T02:04:36.731Z,1018.87
2022-11-26T02:05:36.382Z,1018.88
2022-11-26T02:06:36.301Z,1018.89
2022-11-26T02:07:36.326Z,1018.88
2022-11-26T02:08:36.275Z,1018.87
2022-11-26T02:09:36.281Z,1018.91
2022-11-26T02:10:36.320Z,1018.91
2022-11-26T02:11:36.521Z,1018.93
2022-11-26T02:12:36.243Z,1018.93
2022-11-26T02:13:36.222Z,1018.97
2022-11-26T02:14:37.411Z,1018.94
2022-11-26T02:15:36.244Z,1018.90
2022-11-26T02:16:36.275Z,1018.95
2022-11-26T02:17:36.240Z,1018.95
2022-11-26T02:18:36.205Z,1018.91
2022-11-26T02:19:36.190Z,1018.95
2022-11-26T02:20:36.157Z,1019.00
2022-11-26T02:21:36.231Z,1019.00
2022-11-26T02:22:36.157Z,1018.98
2022-11-26T02:23:36.125Z,1019.02
2022-11-26T02:24:36.674Z,1019.09
2022-11-26T02:25:36.084Z,1019.02
2022-11-26T02:26:36.123Z,1019.03
2022-11-26T02:27:36.060Z,1019.03
2022-11-26T02:28:36.103Z,1019.03
2022-11-26T02:29:36.092Z,1019.07
2022-11-26T02:30:36.063Z,1019.05
2022-11-26T02:31:36.085Z,1019.01
2022-11-26T02:32:36.046Z,1018.99
2022-11-26T02:33:36.064Z,1018.98
2022-11-26T02:34:38.031Z,1019.00
2022-11-26T02:35:36.050Z,1018.99
2022-11-26T02:36:35.970Z,1018.99
2022-11-26T02:37:35.965Z,1019.00
2022-11-26T02:38:35.978Z,1019.01
2022-11-26T02:39:36.017Z,1019.01
2022-11-26T02:40:35.950Z,1019.04
2022-11-26T02:41:35.933Z,1018.96
2022-11-26T02:42:35.940Z,1018.97
2022-11-26T02:43:35.956Z,1019.02
2022-11-26T02:44:36.133Z,1019.06
2022-11-26T02:45:35.981Z,1019.01
2022-11-26T02:46:35.879Z,1019.05
2022-11-26T02:47:35.905Z,1019.01
2022-11-26T02:48:35.854Z,1019.01
2022-11-26T02:49:35.838Z,1019.00
2022-11-26T02:50:35.820Z,1018.96
2022-11-26T02:51:35.845Z,1018.97
2022-11-26T02:52:35.817Z,1019.01
2022-11-26T02:53:35.797Z,1018.99
2022-11-26T02:54:36.128Z,1018.98
2022-11-26T02:55:36.432Z,1018.98
2022-11-26T02:56:35.819Z,1018.99
2022-11-26T02:57:35.780Z,1019.02
2022-11-26T02:58:35.726Z,1019.00
2022-11-26T02:59:35.745Z,1018.99
2022-11-26T03:00:35.710Z,1019.01
2022-11-26T03:01:35.743Z,1019.05
2022-11-26T03:02:35.769Z,1019.03
2022-11-26T03:03:35.713Z,1019.07
2022-11-26T03:04:35.984Z,1019.07
2022-11-26T03:05:35.634Z,1019.02
2022-11-26T03:06:35.664Z,1018.97
2022-11-26T03:07:35.644Z,1018.95
2022-11-26T03:08:35.621Z,1018.95
2022-11-26T03:09:35.585Z,1018.93
2022-11-26T03:10:35.587Z,1018.91
2022-11-26T03:11:35.571Z,1019.00
2022-11-26T03:12:35.552Z,1018.97
2022-11-26T03:13:35.833Z,1018.91
2022-11-26T03:14:35.677Z,1018.93
2022-11-26T03:15:35.516Z,1018.91
2022-11-26T03:16:35.565Z,1018.89
2022-11-26T03:17:35.490Z,1018.88
2022-11-26T03:18:35.484Z,1018.88
2022-11-26T03:19:35.490Z,1018.88
2022-11-26T03:20:35.464Z,1018.91
2022-11-26T03:21:35.458Z,1018.86
2022-11-26T03:22:35.454Z,1018.89
2022-11-26T03:23:35.424Z,1018.92
2022-11-26T03:24:35.652Z,1018.89
2022-11-26T03:25:35.402Z,1018.93
2022-11-26T03:26:35.397Z,1018.91
2022-11-26T03:27:35.387Z,1018.93
2022-11-26T03:28:35.375Z,1018.94
2022-11-26T03:29:35.358Z,1018.93
2022-11-26T03:30:35.379Z,1018.94
2022-11-26T03:31:35.411Z,1018.99
2022-11-26T03:32:35.334Z,1018.91
2022-11-26T03:33:35.317Z,1018.94
2022-11-26T03:34:35.558Z,1019.01
2022-11-26T03:35:35.315Z,1018.98
2022-11-26T03:36:35.289Z,1019.04
2022-11-26T03:37:35.274Z,1019.09
2022-11-26T03:38:35.265Z,1019.08
2022-11-26T03:39:35.255Z,1019.09
2022-11-26T03:40:35.278Z,1019.13
2022-11-26T03:41:35.230Z,1019.09
2022-11-26T03:42:35.221Z,1019.14
2022-11-26T03:43:35.209Z,1019.13
2022-11-26T03:44:35.340Z,1019.16
2022-11-26T03:45:35.220Z,1019.18
2022-11-26T03:46:35.224Z,1019.17
2022-11-26T03:47:35.165Z,1019.19
2022-11-26T03:48:35.148Z,1019.17
2022-11-26T03:49:35.160Z,1019.16
2022-11-26T03:50:35.148Z,1019.18
2022-11-26T03:51:35.152Z,1019.18
2022-11-26T03:52:35.130Z,1019.16
2022-11-26T03:53:35.107Z,1019.21
2022-11-26T03:54:35.156Z,1019.17
2022-11-26T03:55:35.076Z,1019.19
2022-11-26T03:56:35.063Z,1019.20
2022-11-26T03:57:35.119Z,1019.23
2022-11-26T03:58:35.036Z,1019.20
2022-11-26T03:59:35.034Z,1019.23
2022-11-26T04:00:35.017Z,1019.25
2022-11-26T04:01:35.079Z,1019.28
2022-11-26T04:02:34.995Z,1019.28
2022-11-26T04:03:35.018Z,1019.29
2022-11-26T04:04:35.138Z,1019.27
2022-11-26T04:05:34.967Z,1019.27
2022-11-26T04:06:34.948Z,1019.34
2022-11-26T04:07:35.029Z,1019.32
2022-11-26T04:08:34.926Z,1019.45
2022-11-26T04:09:34.952Z,1019.51
2022-11-26T04:10:34.916Z,1019.47
2022-11-26T04:11:34.901Z,1019.45
2022-11-26T04:12:34.882Z,1019.47
2022-11-26T04:13:34.879Z,1019.52
2022-11-26T04:14:34.867Z,1019.55
2022-11-26T04:15:34.917Z,1019.50
2022-11-26T04:16:34.900Z,1019.52
2022-11-26T04:17:34.828Z,1019.53
2022-11-26T04:18:34.828Z,1019.50
2022-11-26T04:19:34.809Z,1019.52
2022-11-26T04:20:34.820Z,1019.52
2022-11-26T04:21:34.788Z,1019.52
2022-11-26T04:22:34.778Z,1019.55
2022-11-26T04:23:34.761Z,1019.58
2022-11-26T04:24:34.755Z,1019.62
2022-11-26T04:25:34.774Z,1019.63
2022-11-26T04:26:34.739Z,1019.66
2022-11-26T04:27:34.718Z,1019.67
2022-11-26T04:28:34.712Z,1019.74
2022-11-26T04:29:34.696Z,1019.72
2022-11-26T04:30:34.690Z,1019.77
2022-11-26T04:31:34.746Z,1019.82
2022-11-26T04:32:34.670Z,1019.78
2022-11-26T04:33:34.651Z,1019.83
2022-11-26T04:34:34.645Z,1019.86
2022-11-26T04:35:34.629Z,1019.84
2022-11-26T04:36:34.626Z,1019.83
2022-11-26T04:37:34.632Z,1019.84
2022-11-26T04:38:34.594Z,1019.90
2022-11-26T04:39:34.589Z,1019.92
2022-11-26T04:40:34.575Z,1019.90
2022-11-26T04:41:34.570Z,1019.90
2022-11-26T04:42:34.574Z,1019.96
2022-11-26T04:43:34.544Z,1019.88
2022-11-26T04:44:34.526Z,1019.94
2022-11-26T04:45:34.544Z,1019.92
2022-11-26T04:46:34.509Z,1019.93
2022-11-26T04:47:36.872Z,1019.94
2022-11-26T04:48:34.507Z,1019.98
2022-11-26T04:49:34.480Z,1019.97
2022-11-26T04:50:34.489Z,1019.97
2022-11-26T04:51:34.460Z,1019.97
2022-11-26T04:52:34.442Z,1019.95
2022-11-26T04:53:34.460Z,1020.01
2022-11-26T04:54:34.418Z,1019.97
2022-11-26T04:55:34.418Z,1019.97
2022-11-26T04:56:34.400Z,1019.99
2022-11-26T04:57:34.393Z,1020.02
2022-11-26T04:58:34.375Z,1020.04
2022-11-26T04:59:34.392Z,1020.07
2022-11-26T05:00:34.351Z,1020.07
2022-11-26T05:01:34.388Z,1020.11
2022-11-26T05:02:34.402Z,1020.11
2022-11-26T05:03:34.324Z,1020.14
2022-11-26T05:04:34.336Z,1020.15
2022-11-26T05:05:34.306Z,1020.14
2022-11-26T05:06:34.285Z,1020.14
2022-11-26T05:07:34.306Z,1020.21
2022-11-26T05:08:34.258Z,1020.22
2022-11-26T05:09:34.255Z,1020.25
2022-11-26T05:10:34.270Z,1020.24
2022-11-26T05:11:34.239Z,1020.23
2022-11-26T05:12:34.216Z,1020.28
2022-11-26T05:13:34.208Z,1020.25
2022-11-26T05:14:34.193Z,1020.28
2022-11-26T05:15:34.198Z,1020.29
2022-11-26T05:16:34.225Z,1020.28
2022-11-26T05:17:34.170Z,1020.26
2022-11-26T05:18:34.173Z,1020.26
2022-11-26T05:19:34.152Z,1020.29
2022-11-26T05:20:34.149Z,1020.27
2022-11-26T05:21:34.151Z,1020.24
2022-11-26T05:22:34.109Z,1020.29
2022-11-26T05:23:34.100Z,1020.30
2022-11-26T05:24:34.083Z,1020.32
2022-11-26T05:25:34.081Z,1020.31
2022-11-26T05:26:34.092Z,1020.31
2022-11-26T05:27:34.054Z,1020.35
2022-11-26T05:28:34.037Z,1020.35
2022-11-26T05:29:34.034Z,1020.39
2022-11-26T05:30:34.019Z,1020.37
2022-11-26T05:31:34.076Z,1020.36
2022-11-26T05:32:34.019Z,1020.36
2022-11-26T05:33:33.991Z,1020.42
2022-11-26T05:34:33.975Z,1020.48
2022-11-26T05:35:33.964Z,1020.47
2022-11-26T05:36:33.949Z,1020.45
2022-11-26T05:37:33.946Z,1020.47
2022-11-26T05:38:33.958Z,1020.44
2022-11-26T05:39:33.924Z,1020.46
2022-11-26T05:40:33.910Z,1020.45
2022-11-26T05:41:33.901Z,1020.41
2022-11-26T05:42:33.890Z,1020.38
2022-11-26T05:43:33.874Z,1020.40
2022-11-26T05:44:33.895Z,1020.35
2022-11-26T05:45:33.865Z,1020.36
2022-11-26T05:46:33.851Z,1020.39
2022-11-26T05:47:33.827Z,1020.41
2022-11-26T05:48:33.827Z,1020.38
2022-11-26T05:49:33.827Z,1020.39
2022-11-26T05:50:33.802Z,1020.37
2022-11-26T05:51:33.786Z,1020.46
2022-11-26T05:52:33.781Z,1020.49
2022-11-26T05:53:33.773Z,1020.51
2022-11-26T05:54:33.804Z,1020.53
2022-11-26T05:55:33.746Z,1020.50
2022-11-26T05:56:33.735Z,1020.51
2022-11-26T05:57:33.720Z,1020.53
2022-11-26T05:58:33.710Z,1020.52
2022-11-26T05:59:33.699Z,1020.56
2022-11-26T06:00:33.729Z,1020.55
2022-11-26T06:01:33.674Z,1020.55
2022-11-26T06:02:33.787Z,1020.55
2022-11-26T06:03:33.703Z,1020.56
2022-11-26T06:04:33.648Z,1020.54
2022-11-26T06:05:33.632Z,1020.58
2022-11-26T06:06:33.646Z,1020.55
2022-11-26T06:07:33.657Z,1020.61
2022-11-26T06:08:33.600Z,1020.60
2022-11-26T06:09:33.593Z,1020.64
2022-11-26T06:10:33.582Z,1020.56
2022-11-26T06:11:33.609Z,1020.60
2022-11-26T06:12:33.556Z,1020.63
2022-11-26T06:13:33.541Z,1020.65
2022-11-26T06:14:33.536Z,1020.65
2022-11-26T06:15:33.523Z,1020.64
2022-11-26T06:16:33.650Z,1020.62
2022-11-26T06:17:33.495Z,1020.62
2022-11-26T06:18:33.492Z,1020.61
2022-11-26T06:19:33.478Z,1020.62
2022-11-26T06:20:33.469Z,1020.58
2022-11-26T06:21:33.461Z,1020.65
2022-11-26T06:22:33.482Z,1020.61
2022-11-26T06:23:33.452Z,1020.64
2022-11-26T06:24:33.427Z,1020.67
2022-11-26T06:25:33.407Z,1020.73
2022-11-26T06:26:33.403Z,1020.75
2022-11-26T06:27:33.386Z,1020.77
2022-11-26T06:28:33.408Z,1020.80
2022-11-26T06:29:33.368Z,1020.82
2022-11-26T06:30:33.356Z,1020.82
2022-11-26T06:31:33.389Z,1020.83
2022-11-26T06:32:33.337Z,1020.86
2022-11-26T06:33:33.352Z,1020.83
2022-11-26T06:34:33.316Z,1020.83
2022-11-26T06:35:33.304Z,1020.87
2022-11-26T06:36:33.296Z,1020.88
2022-11-26T06:37:33.275Z,1020.86
2022-11-26T06:38:33.268Z,1020.92
2022-11-26T06:39:33.296Z,1020.94
2022-11-26T06:40:33.249Z,1020.98
2022-11-26T06:41:33.256Z,1020.99
2022-11-26T06:42:33.228Z,1021.01
2022-11-26T06:43:33.215Z,1021.03
2022-11-26T06:44:33.194Z,1020.95
2022-11-26T06:45:33.280Z,1020.97
2022-11-26T06:46:33.177Z,1020.97
2022-11-26T06:47:33.171Z,1020.94
2022-11-26T06:48:33.156Z,1020.99
2022-11-26T06:49:33.149Z,1021.03
2022-11-26T06:50:33.133Z,1021.00
2022-11-26T06:51:33.147Z,1021.04
2022-11-26T06:52:33.114Z,1021.06
2022-11-26T06:53:33.102Z,1021.00
2022-11-26T06:54:33.134Z,1021.02
2022-11-26T06:55:33.080Z,1021.01
2022-11-26T06:56:33.086Z,1021.02
2022-11-26T06:57:33.106Z,1021.02
2022-11-26T06:58:33.041Z,1020.97
2022-11-26T06:59:33.038Z,1020.98
2022-11-26T07:00:33.022Z,1020.95
2022-11-26T07:01:33.151Z,1020.96
2022-11-26T07:02:33.046Z,1020.98
2022-11-26T07:03:33.573Z,1020.99
2022-11-26T07:04:32.976Z,1020.99
2022-11-26T07:05:32.972Z,1021.01
2022-11-26T07:06:32.978Z,1021.01
2022-11-26T07:07:32.999Z,1021.06
2022-11-26T07:08:32.934Z,1021.06
2022-11-26T07:09:32.928Z,1021.08
2022-11-26T07:10:32.922Z,1021.09
2022-11-26T07:11:32.924Z,1021.08
2022-11-26T07:12:32.887Z,1021.12
2022-11-26T07:13:32.882Z,1021.08
2022-11-26T07:14:32.867Z,1021.10
2022-11-26T07:15:32.863Z,1021.06
2022-11-26T07:16:32.913Z,1021.09
2022-11-26T07:17:32.840Z,1021.07
2022-11-26T07:18:32.827Z,1021.09
2022-11-26T07:19:32.818Z,1021.09
2022-11-26T07:20:32.800Z,1021.10
2022-11-26T07:21:32.819Z,1021.12
2022-11-26T07:22:32.778Z,1021.19
2022-11-26T07:23:32.800Z,1021.20
2022-11-26T07:24:32.755Z,1021.18
2022-11-26T07:25:32.748Z,1021.19
2022-11-26T07:26:32.769Z,1021.19
2022-11-26T07:27:33.044Z,1021.21
2022-11-26T07:28:32.714Z,1021.21
2022-11-26T07:29:32.708Z,1021.17
2022-11-26T07:30:32.690Z,1021.30
2022-11-26T07:31:32.827Z,1021.26
2022-11-26T07:32:32.690Z,1021.28
2022-11-26T07:33:32.680Z,1021.30
2022-11-26T07:34:32.648Z,1021.26
2022-11-26T07:35:32.631Z,1021.27
2022-11-26T07:36:32.621Z,1021.27
2022-11-26T07:37:32.616Z,1021.29
2022-11-26T07:38:32.640Z,1021.30
2022-11-26T07:39:32.595Z,1021.29
2022-11-26T07:40:32.583Z,1021.27
2022-11-26T07:41:32.568Z,1021.26
2022-11-26T07:42:32.561Z,1021.28
2022-11-26T07:43:32.547Z,1021.29
2022-11-26T07:44:32.580Z,1021.29
2022-11-26T07:45:32.522Z,1021.26
2022-11-26T07:46:32.558Z,1021.28
2022-11-26T07:47:32.503Z,1021.36
2022-11-26T07:48:32.493Z,1021.31
2022-11-26T07:49:32.479Z,1021.39
2022-11-26T07:50:32.511Z,1021.31
2022-11-26T07:51:32.456Z,1021.35
2022-11-26T07:52:32.452Z,1021.32
2022-11-26T07:53:32.440Z,1021.30
2022-11-26T07:54:32.431Z,1021.32
2022-11-26T07:55:32.409Z,1021.31
2022-11-26T07:56:32.431Z,1021.28
2022-11-26T07:57:32.395Z,1021.36
2022-11-26T07:58:32.383Z,1021.34
2022-11-26T07:59:32.369Z,1021.35
2022-11-26T08:00:32.456Z,1021.42
2022-11-26T08:01:32.467Z,1021.45
2022-11-26T08:02:32.360Z,1021.45
2022-11-26T08:03:32.323Z,1021.48
2022-11-26T08:04:32.318Z,1021.48
2022-11-26T08:05:32.304Z,1021.46
2022-11-26T08:06:32.298Z,1021.51
2022-11-26T08:07:32.352Z,1021.49
2022-11-26T08:08:32.276Z,1021.47
2022-11-26T08:09:32.259Z,1021.52
2022-11-26T08:10:32.256Z,1021.51
2022-11-26T08:11:32.235Z,1021.53
2022-11-26T08:12:32.228Z,1021.54
2022-11-26T08:13:32.234Z,1021.55
2022-11-26T08:14:32.206Z,1021.59
2022-11-26T08:15:32.194Z,1021.60
2022-11-26T08:16:32.250Z,1021.60
2022-11-26T08:17:32.172Z,1021.58
2022-11-26T08:18:32.174Z,1021.60
2022-11-26T08:19:32.241Z,1021.61
2022-11-26T08:20:32.139Z,1021.63
2022-11-26T08:21:32.124Z,1021.65
2022-11-26T08:22:32.120Z,1021.64
2022-11-26T08:23:32.103Z,1021.69
2022-11-26T08:24:32.102Z,1021.70
2022-11-26T08:25:32.107Z,1021.69
2022-11-26T08:26:37.101Z,1021.75
2022-11-26T08:27:32.068Z,1021.76
2022-11-26T08:28:32.052Z,1021.75
2022-11-26T08:29:32.040Z,1021.73
2022-11-26T08:30:32.038Z,1021.74
2022-11-26T08:31:32.082Z,1021.71
2022-11-26T08:32:32.005Z,1021.75
2022-11-26T08:33:32.015Z,1021.78
2022-11-26T08:34:32.094Z,1021.78
2022-11-26T08:35:59.163Z,1021.76
2022-11-26T08:36:32.001Z,1021.80
2022-11-26T08:37:31.954Z,1021.81
2022-11-26T08:38:31.943Z,1021.77
2022-11-26T08:39:31.932Z,1021.78
2022-11-26T08:40:31.985Z,1021.79
2022-11-26T08:41:31.902Z,1021.80
2022-11-26T08:42:31.928Z,1021.79
2022-11-26T08:44:04.012Z,1021.82
2022-11-26T08:44:31.881Z,1021.84
2022-11-26T08:45:31.916Z,1021.80
2022-11-26T08:46:31.884Z,1021.79
2022-11-26T08:47:32.599Z,1021.77
2022-11-26T08:48:32.007Z,1021.84
2022-11-26T08:49:31.848Z,1021.84
2022-11-26T08:50:31.809Z,1021.80
2022-11-26T08:51:31.795Z,1021.78
2022-11-26T08:52:31.786Z,1021.76
2022-11-26T08:53:31.772Z,1021.84
2022-11-26T08:54:31.783Z,1021.81
2022-11-26T08:55:58.904Z,1021.81
2022-11-26T08:56:31.749Z,1021.85
2022-11-26T08:57:31.729Z,1021.78
2022-11-26T08:58:31.742Z,1021.78
2022-11-26T08:59:31.724Z,1021.78
2022-11-26T09:00:31.695Z,1021.78
2022-11-26T09:01:31.700Z,1021.77
2022-11-26T09:02:31.672Z,1021.81
2022-11-26T09:03:31.656Z,1021.80
2022-11-26T09:04:31.670Z,1021.78
2022-11-26T09:05:31.635Z,1021.83
2022-11-26T09:06:31.633Z,1021.85
2022-11-26T09:07:31.663Z,1021.84
2022-11-26T09:08:31.606Z,1021.82
2022-11-26T09:09:31.617Z,1021.79
2022-11-26T09:10:31.583Z,1021.79
2022-11-26T09:11:31.565Z,1021.80
2022-11-26T09:12:31.606Z,1021.85
2022-11-26T09:13:31.549Z,1021.90
2022-11-26T09:14:31.633Z,1021.88
2022-11-26T09:15:31.574Z,1021.89
2022-11-26T09:16:31.576Z,1021.88
2022-11-26T09:17:31.499Z,1021.92
2022-11-26T09:18:31.495Z,1021.94
2022-11-26T09:19:31.497Z,1021.95
2022-11-26T09:20:31.471Z,1021.90
2022-11-26T09:21:31.455Z,1021.92
2022-11-26T09:22:31.447Z,1021.95
2022-11-26T09:23:31.437Z,1021.93
2022-11-26T09:24:31.448Z,1021.93
2022-11-26T09:25:31.408Z,1021.91
2022-11-26T09:26:31.406Z,1021.90
2022-11-26T09:27:31.390Z,1021.96
2022-11-26T09:28:31.387Z,1021.99
2022-11-26T09:29:31.385Z,1021.96
2022-11-26T09:30:31.362Z,1021.97
2022-11-26T09:31:31.364Z,1021.95
2022-11-26T09:32:34.335Z,1021.97
2022-11-26T09:33:31.344Z,1021.97
2022-11-26T09:34:31.360Z,1021.99
2022-11-26T09:35:31.365Z,1022.02
2022-11-26T09:36:31.314Z,1022.04
2022-11-26T09:37:31.277Z,1022.06
2022-11-26T09:38:31.265Z,1022.06
2022-11-26T09:39:31.262Z,1022.05
2022-11-26T09:40:31.242Z,1022.11
2022-11-26T09:41:31.235Z,1022.06
2022-11-26T09:42:31.261Z,1022.11
2022-11-26T09:43:31.214Z,1022.11
2022-11-26T09:44:31.197Z,1022.06
2022-11-26T09:45:31.305Z,1022.07
2022-11-26T09:46:40.927Z,1022.07
2022-11-26T09:47:31.179Z,1022.15
2022-11-26T09:48:31.179Z,1022.16
2022-11-26T09:49:31.156Z,1022.16
2022-11-26T09:50:31.131Z,1022.15
2022-11-26T09:51:31.121Z,1022.13
2022-11-26T09:52:31.126Z,1022.15
2022-11-26T09:53:31.139Z,1022.17
2022-11-26T09:54:31.085Z,1022.17
2022-11-26T09:55:31.076Z,1022.25
2022-11-26T09:56:31.063Z,1022.24
2022-11-26T09:57:31.062Z,1022.24
2022-11-26T09:58:31.044Z,1022.24
2022-11-26T09:59:31.075Z,1022.21
2022-11-26T10:00:31.014Z,1022.22
2022-11-26T10:01:31.081Z,1022.21
2022-11-26T10:02:31.036Z,1022.19
2022-11-26T10:03:30.988Z,1022.20
2022-11-26T10:04:30.972Z,1022.19
2022-11-26T10:05:30.990Z,1022.23
2022-11-26T10:06:30.951Z,1022.19
2022-11-26T10:07:30.986Z,1022.22
2022-11-26T10:08:30.928Z,1022.21
2022-11-26T10:09:30.922Z,1022.22
2022-11-26T10:10:30.902Z,1022.21
2022-11-26T10:11:30.936Z,1022.21
2022-11-26T10:12:30.885Z,1022.21
2022-11-26T10:13:30.876Z,1022.18
2022-11-26T10:14:30.882Z,1022.17
2022-11-26T10:15:30.854Z,1022.20
2022-11-26T10:16:30.941Z,1022.16
2022-11-26T10:17:30.855Z,1022.14
2022-11-26T10:18:30.817Z,1022.17
2022-11-26T10:19:30.810Z,1022.18
2022-11-26T10:20:30.806Z,1022.19
2022-11-26T10:21:57.165Z,1022.18
2022-11-26T10:22:30.813Z,1022.17
2022-11-26T10:23:30.769Z,1022.20
2022-11-26T10:24:30.749Z,1022.20
2022-11-26T10:25:30.749Z,1022.18
2022-11-26T10:26:30.732Z,1022.18
2022-11-26T10:27:30.720Z,1022.18
2022-11-26T10:28:30.744Z,1022.17
2022-11-26T10:29:30.698Z,1022.17
2022-11-26T10:30:30.681Z,1022.13
2022-11-26T10:31:30.744Z,1022.18
2022-11-26T10:32:30.664Z,1022.19
2022-11-26T10:33:30.656Z,1022.20
2022-11-26T10:34:35.912Z,1022.15
2022-11-26T10:35:30.642Z,1022.22
2022-11-26T10:36:30.616Z,1022.24
2022-11-26T10:37:30.612Z,1022.23
2022-11-26T10:38:30.599Z,1022.18
2022-11-26T10:39:30.599Z,1022.16
2022-11-26T10:40:30.619Z,1022.15
2022-11-26T10:41:30.566Z,1022.17
2022-11-26T10:42:30.556Z,1022.17
2022-11-26T10:43:30.538Z,1022.14
2022-11-26T10:44:30.534Z,1022.14
2022-11-26T10:45:30.522Z,1022.13
2022-11-26T10:46:30.574Z,1022.16
2022-11-26T10:47:30.495Z,1022.12
2022-11-26T10:48:30.487Z,1022.17
2022-11-26T10:49:30.472Z,1022.15
2022-11-26T10:51:30.488Z,1022.08
2022-11-26T10:52:30.442Z,1022.09
2022-11-26T10:53:30.432Z,1022.12
2022-11-26T10:54:30.424Z,1022.07
2022-11-26T10:55:30.405Z,1022.06
2022-11-26T10:56:30.400Z,1022.06
2022-11-26T10:57:30.405Z,1022.07
2022-11-26T10:58:30.381Z,1022.07
2022-11-26T10:59:30.363Z,1022.10
2022-11-26T11:00:30.371Z,1022.04
2022-11-26T11:01:30.354Z,1022.04
2022-11-26T11:02:30.388Z,1022.06
2022-11-26T11:03:59.761Z,1022.07
2022-11-26T11:04:30.320Z,1022.07
2022-11-26T11:05:30.294Z,1022.06
2022-11-26T11:06:30.288Z,1022.06
2022-11-26T11:07:30.316Z,1022.09
2022-11-26T11:08:30.269Z,1022.09
2022-11-26T11:09:30.271Z,1022.08
2022-11-26T11:10:30.246Z,1022.08
2022-11-26T11:11:30.230Z,1022.08
2022-11-26T11:12:30.221Z,1022.07
2022-11-26T11:13:30.207Z,1022.00
2022-11-26T11:14:30.206Z,1022.07
2022-11-26T11:15:30.216Z,1022.00
2022-11-26T11:16:30.232Z,1022.01
2022-11-26T11:17:30.161Z,1021.99
2022-11-26T11:18:30.154Z,1022.02
2022-11-26T11:19:30.137Z,1022.00
2022-11-26T11:20:30.156Z,1022.00
2022-11-26T11:21:30.141Z,1022.02
2022-11-26T11:22:30.119Z,1022.02
2022-11-26T11:24:00.152Z,1021.93
2022-11-26T11:24:30.097Z,1021.94
2022-11-26T11:25:30.082Z,1021.97
2022-11-26T11:26:30.089Z,1021.96
2022-11-26T11:27:30.049Z,1021.96
2022-11-26T11:28:30.040Z,1022.00
2022-11-26T11:29:30.029Z,1021.98
2022-11-26T11:30:30.045Z,1021.93
2022-11-26T11:31:30.052Z,1021.90
2022-11-26T11:32:30.028Z,1021.96
2022-11-26T11:33:29.982Z,1021.90
2022-11-26T11:34:29.976Z,1021.87
2022-11-26T11:35:29.960Z,1021.88
2022-11-26T11:36:29.953Z,1021.86
2022-11-26T11:37:29.937Z,1021.85
2022-11-26T11:38:29.953Z,1021.88
2022-11-26T11:39:29.917Z,1021.92
2022-11-26T11:40:29.906Z,1021.94
2022-11-26T11:41:29.903Z,1021.92
2022-11-26T11:42:29.882Z,1021.89
2022-11-26T11:43:29.876Z,1021.94
2022-11-26T11:44:29.894Z,1021.89
2022-11-26T11:45:29.914Z,1021.88
2022-11-26T11:46:29.836Z,1021.85
2022-11-26T11:47:29.912Z,1021.86
2022-11-26T11:48:29.888Z,1021.85
2022-11-26T11:49:29.865Z,1021.88
2022-11-26T11:50:29.813Z,1021.90
2022-11-26T11:51:29.782Z,1021.89
2022-11-26T11:52:29.767Z,1021.88
2022-11-26T11:53:29.760Z,1021.91
2022-11-26T11:54:29.746Z,1021.92
2022-11-26T11:55:29.762Z,1021.85
2022-11-26T11:56:29.723Z,1021.92
2022-11-26T11:57:29.719Z,1021.88
2022-11-26T11:58:29.703Z,1021.92
2022-11-26T11:59:29.696Z,1021.88
2022-11-26T12:00:29.705Z,1021.90
2022-11-26T12:01:29.672Z,1021.94
2022-11-26T12:02:29.697Z,1021.90
2022-11-26T12:03:29.647Z,1021.87
2022-11-26T12:04:29.658Z,1021.85
2022-11-26T12:05:29.651Z,1021.89
2022-11-26T12:06:29.612Z,1021.89